Time;durP1;ratioP1;P1;durP2;ratioP2;P2;SDS_P1;SDS_P2;PMS_P1;PMS_P2;Temp;Humidity;BMP_temperature;BMP_pressure;BME280_temperature;BME280_humidity;BME280_pressure;Samples;Min_cycle;Max_cycle;Signal;HPM_P1;HPM_P2
2022/06/26 00:01:23;;;;;;;4.03;3.60;;;24.20;99.90;;;;;;4986900;28;20311;-71
2022/06/26 00:03:49;;;;;;;5.60;3.67;;;24.00;99.90;;;;;;5005270;28;20303;-71
2022/06/26 00:06:15;;;;;;;6.43;3.70;;;23.80;99.90;;;;;;5003101;28;20177;-71
2022/06/26 00:08:40;;;;;;;4.00;3.70;;;23.70;99.90;;;;;;5003216;28;20791;-71
2022/06/26 00:11:07;;;;;;;5.30;3.40;;;23.50;99.90;;;;;;5001457;28;20217;-73
2022/06/26 00:13:36;;;;;;;4.30;3.43;;;23.40;99.90;;;;;;5003347;28;20581;-73
2022/06/26 00:16:01;;;;;;;3.80;3.40;;;23.20;99.90;;;;;;5003212;28;20424;-72
2022/06/26 00:18:27;;;;;;;4.87;3.40;;;22.90;99.90;;;;;;4994606;28;20527;-72
2022/06/26 00:20:53;;;;;;;4.50;3.43;;;22.90;99.90;;;;;;5002875;28;20227;-73
2022/06/26 00:23:18;;;;;;;3.40;3.10;;;22.80;99.90;;;;;;5005223;28;20184;-73
2022/06/26 00:25:44;;;;;;;3.07;2.77;;;22.60;99.90;;;;;;5002900;28;20200;-72
2022/06/26 00:28:09;;;;;;;3.10;2.80;;;22.50;99.90;;;;;;5002189;28;20185;-72
2022/06/26 00:30:35;;;;;;;4.70;2.63;;;22.40;99.90;;;;;;5003022;28;20300;-73
2022/06/26 00:33:01;;;;;;;3.00;2.70;;;22.20;99.90;;;;;;5003567;28;20212;-72
2022/06/26 00:35:26;;;;;;;3.27;2.60;;;22.20;99.90;;;;;;5003180;28;21844;-72
2022/06/26 00:37:52;;;;;;;6.40;2.60;;;22.00;99.90;;;;;;5005023;28;20185;-72
2022/06/26 00:40:17;;;;;;;2.50;2.30;;;22.00;99.90;;;;;;5004504;28;20255;-72
2022/06/26 00:42:43;;;;;;;4.53;2.27;;;22.00;99.90;;;;;;5002440;28;20216;-72
2022/06/26 00:45:09;;;;;;;2.93;2.03;;;22.00;99.90;;;;;;5002891;28;20799;-72
2022/06/26 00:47:35;;;;;;;2.90;2.23;;;22.00;99.90;;;;;;5003012;28;20213;-72
2022/06/26 00:50:00;;;;;;;2.40;2.20;;;22.10;99.90;;;;;;5000967;28;20948;-72
2022/06/26 00:52:28;;;;;;;3.50;2.00;;;22.20;99.90;;;;;;5006183;28;20950;-72
2022/06/26 00:54:54;;;;;;;3.30;2.43;;;22.10;99.90;;;;;;4987013;28;20173;-71
2022/06/26 00:57:21;;;;;;;2.03;1.80;;;22.10;99.90;;;;;;5001483;28;20854;-72
2022/06/26 00:59:50;;;;;;;2.90;2.47;;;22.20;99.90;;;;;;5006130;28;20526;-71
2022/06/26 01:02:16;;;;;;;5.50;2.43;;;22.20;99.90;;;;;;5005232;28;20694;-73
2022/06/26 01:04:41;;;;;;;4.63;2.57;;;22.20;99.90;;;;;;5004555;28;20420;-71
2022/06/26 01:07:08;;;;;;;2.47;2.00;;;22.20;99.90;;;;;;4981391;28;20475;-72
2022/06/26 01:09:34;;;;;;;5.97;2.30;;;22.10;99.90;;;;;;4988154;28;20204;-72
2022/06/26 01:12:00;;;;;;;2.40;2.03;;;22.20;99.90;;;;;;5005058;28;20442;-74
2022/06/26 01:14:26;;;;;;;2.80;2.30;;;22.10;99.90;;;;;;5005958;28;20468;-72
2022/06/26 01:16:52;;;;;;;2.70;2.50;;;22.00;99.90;;;;;;5006066;28;20530;-71
2022/06/26 01:19:19;;;;;;;2.97;2.30;;;22.00;99.90;;;;;;4988457;28;20262;-73
2022/06/26 01:21:45;;;;;;;4.63;2.13;;;22.00;99.90;;;;;;5007290;28;20226;-73
2022/06/26 01:24:11;;;;;;;2.40;2.20;;;21.90;99.90;;;;;;5006488;28;20440;-73
2022/06/26 01:26:37;;;;;;;2.90;2.60;;;21.80;99.90;;;;;;5007675;28;20439;-71
2022/06/26 01:29:04;;;;;;;3.00;2.10;;;21.80;99.90;;;;;;5006295;28;20230;-72
2022/06/26 01:31:32;;;;;;;2.30;2.07;;;21.80;99.90;;;;;;5005279;28;20428;-71
2022/06/26 01:33:58;;;;;;;3.13;2.20;;;21.70;99.90;;;;;;4987501;28;20473;-72
2022/06/26 01:36:24;;;;;;;3.03;2.27;;;21.60;99.90;;;;;;5006481;28;20436;-72
2022/06/26 01:38:50;;;;;;;2.40;2.20;;;21.60;99.90;;;;;;5004544;28;20562;-72
2022/06/26 01:41:16;;;;;;;2.20;2.00;;;21.70;99.90;;;;;;5006117;28;20208;-72
2022/06/26 01:43:41;;;;;;;2.20;2.00;;;21.70;99.90;;;;;;5004340;28;20188;-74
2022/06/26 01:46:07;;;;;;;2.20;2.00;;;21.70;99.90;;;;;;5003501;28;20269;-72
2022/06/26 01:48:36;;;;;;;2.60;2.10;;;21.70;99.90;;;;;;5004888;28;20563;-71
2022/06/26 01:51:02;;;;;;;2.17;1.90;;;21.60;99.90;;;;;;5003469;28;20257;-71
2022/06/26 01:53:28;;;;;;;2.60;2.17;;;21.60;99.90;;;;;;5006180;28;21200;-73
2022/06/26 01:55:54;;;;;;;2.50;2.20;;;21.60;99.90;;;;;;5007214;28;20428;-71
2022/06/26 01:58:20;;;;;;;2.33;2.13;;;21.50;99.90;;;;;;4990820;28;20431;-71
2022/06/26 02:00:47;;;;;;;2.27;2.03;;;21.60;99.90;;;;;;5004662;28;20976;-72
2022/06/26 02:03:15;;;;;;;2.30;2.07;;;21.50;99.90;;;;;;5005832;28;20734;-72
2022/06/26 02:05:41;;;;;;;2.60;2.20;;;21.50;99.90;;;;;;5004827;28;20473;-72
2022/06/26 02:08:07;;;;;;;2.60;2.33;;;21.40;99.90;;;;;;5006470;28;20446;-72
2022/06/26 02:13:36;;;;;;;4.10;2.23;;;21.40;99.90;;;;;;5004029;28;20483;-72
2022/06/26 02:16:21;;;;;;;2.10;1.90;;;21.50;99.90;;;;;;4985715;28;20502;-72
2022/06/26 02:18:49;;;;;;;2.80;2.10;;;21.50;99.90;;;;;;5003251;28;20429;-72
2022/06/26 02:21:16;;;;;;;3.20;2.17;;;21.60;99.90;;;;;;5004268;28;20797;-72
2022/06/26 02:23:43;;;;;;;2.30;2.10;;;21.60;99.90;;;;;;5006038;28;20424;-72
2022/06/26 02:26:10;;;;;;;3.30;2.27;;;21.50;99.90;;;;;;5004394;28;20442;-72
2022/06/26 02:28:37;;;;;;;2.40;2.00;;;21.30;99.90;;;;;;4984807;28;21244;-72
2022/06/26 02:31:02;;;;;;;3.07;2.03;;;21.20;99.90;;;;;;5008708;28;20798;-72
2022/06/26 02:33:29;;;;;;;2.53;2.07;;;21.40;99.90;;;;;;5004155;28;20478;-73
2022/06/26 02:35:55;;;;;;;2.30;2.10;;;21.40;99.90;;;;;;5004601;28;20788;-72
2022/06/26 02:38:24;;;;;;;3.00;2.30;;;21.40;99.90;;;;;;5005310;28;20467;-72
2022/06/26 02:40:50;;;;;;;2.50;1.73;;;21.50;99.90;;;;;;5005923;28;20207;-73
2022/06/26 02:43:16;;;;;;;3.00;2.10;;;21.50;99.90;;;;;;5005757;28;20436;-72
2022/06/26 02:45:42;;;;;;;3.60;2.13;;;21.50;99.90;;;;;;5005557;28;20433;-72
2022/06/26 02:48:08;;;;;;;2.33;2.13;;;21.40;99.90;;;;;;5004695;28;20821;-73
2022/06/26 02:50:34;;;;;;;2.40;2.20;;;21.40;99.90;;;;;;5005908;28;20627;-73
2022/06/26 02:52:59;;;;;;;2.33;2.13;;;21.50;99.90;;;;;;5006733;28;20452;-73
2022/06/26 02:55:25;;;;;;;2.70;2.50;;;21.60;99.90;;;;;;5003708;28;20188;-72
2022/06/26 02:57:51;;;;;;;2.30;2.07;;;21.70;99.90;;;;;;5006865;28;20185;-73
2022/06/26 03:00:16;;;;;;;2.40;2.20;;;21.70;99.90;;;;;;4985744;28;20688;-72
2022/06/26 03:02:42;;;;;;;2.27;1.97;;;21.80;99.90;;;;;;4986567;28;20258;-72
2022/06/26 03:05:11;;;;;;;3.13;2.03;;;21.80;99.90;;;;;;5007549;28;20198;-73
2022/06/26 03:07:36;;;;;;;2.30;2.10;;;21.90;99.90;;;;;;5002344;28;20193;-72
2022/06/26 03:10:02;;;;;;;2.93;2.33;;;22.00;99.90;;;;;;5005120;28;20452;-72
2022/06/26 03:12:28;;;;;;;2.90;2.23;;;22.10;99.90;;;;;;5003317;28;20185;-71
2022/06/26 03:14:53;;;;;;;2.43;2.20;;;21.90;99.90;;;;;;5005171;28;20965;-72
2022/06/26 03:17:19;;;;;;;2.23;2.03;;;21.70;99.90;;;;;;4988870;28;20327;-72
2022/06/26 03:19:45;;;;;;;4.37;2.30;;;21.60;99.90;;;;;;5004630;28;20208;-72
2022/06/26 03:22:10;;;;;;;2.47;2.27;;;21.50;99.90;;;;;;5003604;28;20439;-72
2022/06/26 03:24:36;;;;;;;3.27;2.13;;;21.50;99.90;;;;;;5003855;28;20177;-73
2022/06/26 03:27:02;;;;;;;3.00;2.40;;;21.60;99.90;;;;;;5003489;28;20173;-72
2022/06/26 03:29:28;;;;;;;2.60;2.20;;;21.50;99.90;;;;;;5006853;28;20205;-72
2022/06/26 03:31:55;;;;;;;3.13;2.33;;;21.50;99.90;;;;;;5006067;28;20661;-73
2022/06/26 03:34:21;;;;;;;2.30;2.10;;;21.50;99.90;;;;;;5005640;28;20355;-74
2022/06/26 03:36:46;;;;;;;2.97;2.27;;;21.40;99.90;;;;;;4988859;28;20506;-71
2022/06/26 03:39:12;;;;;;;2.47;2.13;;;21.50;99.90;;;;;;5001634;28;20177;-72
2022/06/26 03:41:38;;;;;;;2.60;2.13;;;21.60;99.90;;;;;;5007336;28;20212;-71
2022/06/26 03:44:04;;;;;;;3.70;2.40;;;21.50;99.90;;;;;;4985794;28;20185;-71
2022/06/26 03:46:30;;;;;;;6.30;3.53;;;21.50;99.90;;;;;;5003306;28;20450;-72
2022/06/26 03:48:55;;;;;;;6.27;2.47;;;21.30;99.90;;;;;;5006083;28;20193;-74
2022/06/26 03:51:21;;;;;;;2.80;2.50;;;21.40;99.90;;;;;;5000918;28;20312;-73
2022/06/26 03:53:46;;;;;;;3.37;2.80;;;21.40;99.90;;;;;;4985059;28;20202;-70
2022/06/26 03:56:12;;;;;;;3.93;2.50;;;21.40;99.90;;;;;;5001521;28;20659;-70
2022/06/26 03:58:38;;;;;;;2.90;2.43;;;21.30;99.90;;;;;;5004589;28;20192;-71
2022/06/26 04:01:03;;;;;;;2.40;2.13;;;21.30;99.90;;;;;;5001122;28;20205;-71
2022/06/26 04:03:29;;;;;;;5.60;2.50;;;21.20;99.90;;;;;;5002716;28;20189;-73
2022/06/26 04:05:54;;;;;;;6.20;2.43;;;21.20;99.90;;;;;;5004252;28;20695;-72
2022/06/26 04:08:20;;;;;;;2.67;2.40;;;21.10;99.90;;;;;;5003325;28;20197;-71
2022/06/26 04:10:46;;;;;;;6.07;2.70;;;21.00;99.90;;;;;;5002272;28;20952;-71
2022/06/26 04:13:12;;;;;;;2.50;2.23;;;20.90;99.90;;;;;;5004632;28;20236;-71
2022/06/26 04:15:39;;;;;;;2.57;2.37;;;20.90;99.90;;;;;;5004155;28;20578;-71
2022/06/26 04:18:06;;;;;;;3.37;2.60;;;20.90;99.90;;;;;;5006671;28;20511;-71
2022/06/26 04:20:32;;;;;;;2.80;2.40;;;20.90;99.90;;;;;;5003132;28;20614;-72
2022/06/26 04:23:05;;;;;;;2.70;2.40;;;20.90;99.90;;;;;;5002359;28;20466;-72
2022/06/26 04:25:33;;;;;;;2.50;2.30;;;21.00;99.90;;;;;;4999119;28;20450;-72
2022/06/26 04:27:59;;;;;;;3.97;2.57;;;21.00;99.90;;;;;;5003457;28;21232;-71
2022/06/26 04:30:26;;;;;;;3.30;2.30;;;21.00;99.90;;;;;;5006671;28;20459;-71
2022/06/26 04:32:51;;;;;;;3.90;2.30;;;20.90;99.90;;;;;;5007583;28;20490;-71
2022/06/26 04:35:17;;;;;;;2.90;2.53;;;21.00;99.90;;;;;;4989202;28;20432;-71
2022/06/26 04:37:43;;;;;;;8.70;2.70;;;20.90;99.90;;;;;;5003283;28;20188;-71
2022/06/26 04:40:14;;;;;;;2.60;2.40;;;21.00;99.90;;;;;;5006769;28;20216;-71
2022/06/26 04:42:41;;;;;;;2.80;2.50;;;21.00;99.90;;;;;;4989799;28;20208;-72
2022/06/26 04:45:07;;;;;;;3.10;2.57;;;21.10;99.90;;;;;;5009116;28;20428;-71
2022/06/26 04:47:34;;;;;;;3.90;2.67;;;20.90;99.90;;;;;;4990937;28;20427;-73
2022/06/26 04:49:59;;;;;;;3.00;2.60;;;20.90;99.90;;;;;;5006668;28;20692;-72
2022/06/26 04:52:25;;;;;;;2.93;2.67;;;20.90;99.90;;;;;;4996169;28;20443;-72
2022/06/26 04:54:51;;;;;;;3.00;2.70;;;20.90;99.90;;;;;;5006357;28;20216;-72
2022/06/26 04:57:17;;;;;;;4.93;2.63;;;20.90;99.90;;;;;;5007781;28;20208;-73
2022/06/26 04:59:46;;;;;;;2.83;2.53;;;21.00;99.90;;;;;;5003728;28;20300;-73
2022/06/26 05:02:12;;;;;;;5.07;2.90;;;21.00;99.90;;;;;;4990929;28;20519;-73
2022/06/26 05:04:38;;;;;;;3.47;2.97;;;20.90;99.90;;;;;;5006330;28;20984;-73
2022/06/26 05:07:04;;;;;;;2.40;2.20;;;20.90;99.90;;;;;;4979275;28;20186;-72
2022/06/26 05:09:30;;;;;;;2.70;2.30;;;21.10;99.90;;;;;;5006696;28;20471;-72
2022/06/26 05:11:59;;;;;;;4.40;2.50;;;21.20;99.90;;;;;;5003354;28;20914;-72
2022/06/26 05:14:25;;;;;;;2.67;2.47;;;21.00;99.90;;;;;;4982659;28;20479;-72
2022/06/26 05:16:50;;;;;;;3.03;2.13;;;21.10;99.90;;;;;;5006622;28;20424;-72
2022/06/26 05:19:16;;;;;;;2.93;2.30;;;21.20;99.90;;;;;;4988708;28;20427;-72
2022/06/26 05:21:42;;;;;;;2.50;2.27;;;21.30;99.90;;;;;;5008316;28;20276;-72
2022/06/26 05:24:08;;;;;;;2.90;2.60;;;21.20;99.90;;;;;;4989476;28;20444;-72
2022/06/26 05:26:34;;;;;;;2.30;2.10;;;21.20;99.90;;;;;;5003129;28;20602;-72
2022/06/26 05:29:00;;;;;;;3.30;2.43;;;21.10;99.90;;;;;;4985475;28;21740;-72
2022/06/26 05:31:26;;;;;;;3.60;2.20;;;21.10;99.90;;;;;;5007808;28;20481;-72
2022/06/26 05:33:51;;;;;;;2.90;2.60;;;21.10;99.90;;;;;;5010268;28;20899;-72
2022/06/26 05:36:17;;;;;;;2.60;2.40;;;21.10;99.90;;;;;;5002894;28;20423;-71
2022/06/26 05:38:43;;;;;;;2.77;1.93;;;21.20;99.90;;;;;;5004236;28;20204;-72
2022/06/26 05:41:09;;;;;;;2.97;2.30;;;21.40;99.90;;;;;;5004290;28;20201;-72
2022/06/26 05:43:35;;;;;;;2.93;2.47;;;21.30;99.90;;;;;;5006417;28;20432;-72
2022/06/26 05:46:00;;;;;;;2.83;2.50;;;21.50;99.90;;;;;;5005130;28;20188;-72
2022/06/26 05:48:26;;;;;;;2.90;2.43;;;21.40;99.90;;;;;;5006050;28;20553;-71
2022/06/26 05:50:53;;;;;;;2.90;2.20;;;21.40;99.90;;;;;;5005247;28;20251;-71
2022/06/26 05:53:19;;;;;;;5.73;2.80;;;21.40;99.90;;;;;;5005292;28;20448;-71
2022/06/26 05:55:45;;;;;;;2.40;2.20;;;21.50;99.90;;;;;;5007422;28;20534;-73
2022/06/26 05:58:11;;;;;;;4.50;2.60;;;21.50;99.90;;;;;;5003765;28;20675;-73
2022/06/26 06:00:38;;;;;;;2.90;2.40;;;21.60;99.90;;;;;;5004778;28;20451;-72
2022/06/26 06:03:04;;;;;;;3.73;2.40;;;21.60;99.90;;;;;;5006772;28;20439;-72
2022/06/26 06:05:30;;;;;;;4.13;2.73;;;21.60;99.90;;;;;;5005883;28;20463;-71
2022/06/26 06:07:56;;;;;;;3.70;2.23;;;21.60;99.90;;;;;;5004131;28;20432;-72
2022/06/26 06:10:23;;;;;;;2.90;2.43;;;21.30;99.90;;;;;;5005439;28;20611;-70
2022/06/26 06:12:50;;;;;;;3.47;2.67;;;21.30;99.90;;;;;;5006113;28;20452;-71
2022/06/26 06:15:17;;;;;;;4.00;2.50;;;21.30;99.90;;;;;;5006567;28;20925;-71
2022/06/26 06:17:43;;;;;;;2.93;2.20;;;21.30;99.90;;;;;;5006029;28;20435;-72
2022/06/26 06:20:20;;;;;;;3.40;2.50;;;21.50;99.90;;;;;;5005744;28;20460;-73
2022/06/26 06:22:54;;;;;;;3.03;2.40;;;21.60;99.90;;;;;;5006634;28;20914;-72
2022/06/26 06:25:21;;;;;;;3.10;2.53;;;21.70;99.90;;;;;;5002952;28;20432;-71
2022/06/26 06:27:47;;;;;;;3.37;2.43;;;21.80;99.90;;;;;;5007200;28;20474;-72
2022/06/26 06:30:14;;;;;;;2.90;2.60;;;21.90;99.90;;;;;;5006557;28;20526;-71
2022/06/26 06:32:41;;;;;;;2.67;2.33;;;22.00;99.90;;;;;;5003398;28;20216;-72
2022/06/26 06:35:13;;;;;;;3.13;2.67;;;22.00;99.90;;;;;;4987409;28;20674;-72
2022/06/26 06:37:39;;;;;;;2.30;2.03;;;22.10;99.90;;;;;;5005165;28;20428;-72
2022/06/26 06:40:05;;;;;;;2.63;2.30;;;22.10;99.90;;;;;;5005321;28;20436;-72
2022/06/26 06:42:30;;;;;;;2.83;2.53;;;22.10;99.90;;;;;;5002881;28;20448;-72
2022/06/26 06:44:56;;;;;;;3.37;2.40;;;22.10;99.90;;;;;;5003104;28;20431;-71
2022/06/26 06:47:22;;;;;;;4.20;3.17;;;22.00;99.90;;;;;;5004496;28;20189;-71
2022/06/26 06:49:47;;;;;;;2.90;2.40;;;22.10;99.90;;;;;;5006057;28;20295;-73
2022/06/26 06:52:13;;;;;;;2.53;2.33;;;22.10;99.90;;;;;;4989395;28;20536;-71
2022/06/26 06:54:39;;;;;;;2.60;2.30;;;22.10;99.90;;;;;;5004719;28;20394;-71
2022/06/26 06:57:04;;;;;;;2.40;2.17;;;22.20;99.90;;;;;;5008396;28;20869;-71
2022/06/26 06:59:30;;;;;;;3.30;2.40;;;22.10;99.90;;;;;;5003104;28;20205;-71
2022/06/26 07:01:56;;;;;;;3.20;2.70;;;22.20;99.90;;;;;;5004009;28;20189;-71
2022/06/26 07:04:22;;;;;;;5.53;2.40;;;22.30;99.90;;;;;;5005681;28;20906;-71
2022/06/26 07:06:48;;;;;;;3.00;2.80;;;22.30;99.90;;;;;;5003703;28;20230;-71
2022/06/26 07:09:13;;;;;;;2.83;2.60;;;22.40;99.90;;;;;;5003445;28;20519;-71
2022/06/26 07:11:39;;;;;;;2.50;2.30;;;22.40;99.90;;;;;;5006256;28;20523;-70
2022/06/26 07:14:06;;;;;;;13.50;11.10;;;22.30;99.90;;;;;;5005572;28;20205;-71
2022/06/26 07:16:31;;;;;;;3.67;3.33;;;22.40;99.90;;;;;;4985132;28;20185;-72
2022/06/26 07:18:57;;;;;;;2.57;2.27;;;22.60;99.90;;;;;;5002145;28;20866;-72
2022/06/26 07:21:23;;;;;;;2.80;2.57;;;22.50;99.90;;;;;;4986042;28;20722;-71
2022/06/26 07:23:49;;;;;;;2.67;2.47;;;22.60;99.90;;;;;;5003412;28;20200;-72
2022/06/26 07:26:14;;;;;;;4.90;2.90;;;22.60;99.90;;;;;;5002339;28;20198;-72
2022/06/26 07:28:40;;;;;;;2.40;2.07;;;22.60;99.90;;;;;;5002908;28;20193;-71
2022/06/26 07:31:06;;;;;;;4.50;3.10;;;22.60;99.90;;;;;;5004330;28;20215;-71
2022/06/26 07:36:16;;;;;;;2.90;2.43;;;22.60;99.90;;;;;;5003392;28;20849;-72
2022/06/26 07:38:42;;;;;;;2.43;2.23;;;22.60;99.90;;;;;;5007170;28;20416;-72
2022/06/26 07:41:08;;;;;;;3.83;2.20;;;22.60;99.90;;;;;;5003486;28;20832;-72
2022/06/26 07:43:34;;;;;;;4.00;3.00;;;22.60;99.90;;;;;;5003500;28;20655;-71
2022/06/26 07:45:59;;;;;;;4.00;2.90;;;22.50;99.90;;;;;;5004252;28;20432;-71
2022/06/26 07:48:25;;;;;;;2.50;2.30;;;22.50;99.90;;;;;;4986875;28;20440;-72
2022/06/26 07:50:51;;;;;;;3.13;2.70;;;22.70;99.90;;;;;;5004742;28;20262;-71
2022/06/26 07:53:20;;;;;;;3.00;2.70;;;22.90;99.90;;;;;;5002270;28;20288;-72
2022/06/26 07:55:46;;;;;;;6.00;4.73;;;22.90;99.90;;;;;;5002269;28;20200;-72
2022/06/26 07:58:11;;;;;;;3.00;2.20;;;23.00;99.90;;;;;;5005630;28;21328;-72
2022/06/26 08:00:37;;;;;;;5.43;2.60;;;23.10;99.90;;;;;;5005947;28;20208;-71
2022/06/26 08:03:04;;;;;;;5.23;2.30;;;23.20;99.90;;;;;;5003892;28;20189;-71
2022/06/26 08:05:30;;;;;;;3.50;2.20;;;23.00;99.90;;;;;;5004509;28;20264;-72
2022/06/26 08:07:55;;;;;;;3.70;2.43;;;23.00;99.90;;;;;;5004948;28;20432;-72
2022/06/26 08:10:21;;;;;;;3.20;2.33;;;23.20;99.90;;;;;;5002308;28;20218;-72
2022/06/26 08:12:47;;;;;;;2.87;2.43;;;23.30;99.90;;;;;;5004125;28;20181;-71
2022/06/26 08:15:12;;;;;;;2.30;2.10;;;23.30;99.90;;;;;;5002489;28;20219;-73
2022/06/26 08:17:38;;;;;;;3.13;2.30;;;23.30;99.90;;;;;;5004061;28;20359;-71
2022/06/26 08:20:04;;;;;;;3.17;2.43;;;23.40;99.90;;;;;;4999345;28;20208;-72
2022/06/26 08:22:30;;;;;;;3.33;2.30;;;23.50;99.90;;;;;;5004252;28;20262;-72
2022/06/26 08:24:55;;;;;;;2.50;2.20;;;23.40;99.90;;;;;;5002996;28;20436;-71
2022/06/26 08:27:21;;;;;;;2.53;2.30;;;23.50;99.90;;;;;;5003958;28;20200;-71
2022/06/26 08:29:46;;;;;;;4.73;2.97;;;23.50;99.90;;;;;;5003884;28;20777;-72
2022/06/26 08:32:12;;;;;;;2.80;2.47;;;23.60;99.90;;;;;;5004354;28;20193;-72
2022/06/26 08:34:37;;;;;;;3.03;2.73;;;23.60;99.90;;;;;;5001289;28;20214;-72
2022/06/26 08:37:03;;;;;;;5.23;3.50;;;23.70;99.90;;;;;;5007185;28;20307;-71
2022/06/26 08:39:34;;;;;;;3.10;2.67;;;23.80;99.90;;;;;;5003026;28;20282;-72
2022/06/26 08:42:00;;;;;;;4.17;3.20;;;23.80;99.90;;;;;;5002443;28;20182;-71
2022/06/26 08:44:27;;;;;;;3.57;2.70;;;23.90;99.90;;;;;;5003289;28;20451;-72
2022/06/26 08:46:54;;;;;;;2.70;2.50;;;23.80;99.90;;;;;;5002004;28;20424;-72
2022/06/26 08:49:23;;;;;;;3.10;2.80;;;24.00;99.90;;;;;;4999553;28;20848;-72
2022/06/26 08:51:50;;;;;;;2.97;2.50;;;24.20;99.90;;;;;;5002846;28;20427;-72
2022/06/26 08:54:17;;;;;;;3.00;2.70;;;24.30;99.90;;;;;;5002462;28;20928;-72
2022/06/26 08:56:45;;;;;;;3.23;2.40;;;24.40;99.90;;;;;;4985240;28;20794;-72
2022/06/26 08:59:12;;;;;;;2.63;2.43;;;24.30;99.90;;;;;;5003068;28;20827;-71
2022/06/26 09:01:40;;;;;;;4.53;2.40;;;24.40;99.90;;;;;;5002063;28;20428;-71
2022/06/26 09:04:06;;;;;;;3.20;2.30;;;24.60;99.90;;;;;;5001709;28;20749;-71
2022/06/26 09:06:33;;;;;;;4.13;2.30;;;24.90;99.90;;;;;;5004172;28;20424;-72
2022/06/26 09:08:59;;;;;;;3.07;2.80;;;25.10;99.90;;;;;;5003500;28;20436;-72
2022/06/26 09:11:24;;;;;;;3.47;2.40;;;25.00;99.90;;;;;;5002010;28;20945;-71
2022/06/26 09:13:53;;;;;;;3.33;2.73;;;24.90;99.90;;;;;;5003421;28;20240;-72
2022/06/26 09:16:31;;;;;;;3.17;2.27;;;24.90;99.90;;;;;;5001012;28;20209;-72
2022/06/26 09:19:07;;;;;;;2.70;2.50;;;24.90;99.90;;;;;;5002888;28;20442;-72
2022/06/26 09:21:33;;;;;;;2.60;2.40;;;25.00;99.90;;;;;;5006565;28;20515;-71
2022/06/26 09:23:58;;;;;;;2.40;2.20;;;25.00;99.90;;;;;;4986272;28;20507;-72
2022/06/26 09:26:24;;;;;;;2.43;2.23;;;25.20;99.90;;;;;;5005935;28;20189;-71
2022/06/26 09:28:49;;;;;;;2.53;2.33;;;25.30;99.90;;;;;;5005365;28;20544;-71
2022/06/26 09:31:20;;;;;;;4.63;2.57;;;25.40;99.90;;;;;;5008284;28;20270;-72
2022/06/26 09:33:46;;;;;;;2.43;2.23;;;25.50;99.90;;;;;;5005717;28;20295;-72
2022/06/26 09:36:17;;;;;;;3.87;2.20;;;25.60;99.90;;;;;;5004566;28;20531;-72
2022/06/26 09:38:50;;;;;;;2.23;2.03;;;25.60;99.90;;;;;;5002712;28;20231;-72
2022/06/26 09:41:27;;;;;;;2.50;2.30;;;25.60;99.90;;;;;;5007027;28;20444;-72
2022/06/26 09:43:55;;;;;;;5.03;2.50;;;25.80;99.90;;;;;;5002934;28;20801;-72
2022/06/26 09:46:30;;;;;;;2.40;2.20;;;25.80;99.90;;;;;;5006187;28;20580;-72
2022/06/26 09:48:57;;;;;;;2.77;2.57;;;26.00;99.90;;;;;;5006648;28;20944;-71
2022/06/26 09:51:24;;;;;;;4.40;2.70;;;26.30;99.90;;;;;;5007092;28;20844;-72
2022/06/26 09:53:50;;;;;;;3.80;2.93;;;26.30;99.90;;;;;;5006804;28;20551;-71
2022/06/26 09:56:16;;;;;;;3.60;2.67;;;26.20;99.90;;;;;;5005035;28;20527;-72
2022/06/26 09:58:42;;;;;;;2.60;2.37;;;26.50;99.90;;;;;;5006292;28;20569;-71
2022/06/26 10:06:39;;;;;;;3.50;2.87;;;27.20;99.90;;;;;;5004510;28;20450;-71
2022/06/26 10:09:09;;;;;;;3.70;2.93;;;27.30;99.90;;;;;;5005412;28;20495;-71
2022/06/26 10:11:40;;;;;;;2.30;2.10;;;27.00;99.90;;;;;;5007212;28;21008;-71
2022/06/26 10:14:09;;;;;;;6.13;2.30;;;27.00;99.90;;;;;;5008299;28;20574;-71
2022/06/26 10:17:10;;;;;;;3.53;3.23;;;27.00;99.90;;;;;;4987497;28;20460;-71
2022/06/26 10:19:50;;;;;;;3.17;2.27;;;27.20;99.90;;;;;;4997762;28;20711;-71
2022/06/26 10:22:16;;;;;;;3.33;2.20;;;27.10;99.90;;;;;;5004416;28;20845;-71
2022/06/26 10:24:57;;;;;;;3.23;2.23;;;26.90;99.90;;;;;;5004987;28;20445;-72
2022/06/26 10:27:28;;;;;;;2.63;2.33;;;26.80;99.90;;;;;;5001606;28;20694;-71
2022/06/26 10:30:08;;;;;;;2.40;2.00;;;26.80;99.90;;;;;;5003188;28;20475;-71
2022/06/26 10:32:34;;;;;;;2.80;2.60;;;26.90;99.90;;;;;;5004013;28;20435;-72
2022/06/26 10:35:00;;;;;;;3.30;2.40;;;27.00;99.90;;;;;;4988800;28;20475;-71
2022/06/26 10:37:25;;;;;;;2.33;2.13;;;27.10;99.90;;;;;;5006500;28;20725;-71
2022/06/26 10:39:54;;;;;;;2.83;2.50;;;27.00;99.90;;;;;;5003188;28;20252;-72
2022/06/26 10:45:28;;;;;;;3.70;2.77;;;26.90;99.90;;;;;;5002816;28;20491;-71
2022/06/26 10:47:58;;;;;;;2.70;2.50;;;27.10;99.90;;;;;;5004658;28;20444;-72
2022/06/26 10:50:54;;;;;;;2.87;2.50;;;27.20;99.90;;;;;;5006070;28;20471;-72
2022/06/26 10:53:41;;;;;;;2.60;2.40;;;27.00;99.90;;;;;;4988418;28;20543;-71
2022/06/26 10:56:08;;;;;;;2.40;2.20;;;27.00;99.90;;;;;;5004722;28;20971;-71
2022/06/26 10:58:37;;;;;;;2.50;2.30;;;27.30;99.90;;;;;;5006268;28;20438;-72
2022/06/26 11:01:08;;;;;;;2.77;2.47;;;27.60;99.90;;;;;;4986525;28;20455;-73
2022/06/26 11:03:35;;;;;;;2.60;2.40;;;28.00;99.90;;;;;;5002957;28;20522;-72
2022/06/26 11:06:04;;;;;;;3.43;2.43;;;28.20;99.90;;;;;;5004712;28;20467;-71
2022/06/26 11:08:31;;;;;;;2.97;2.40;;;28.60;99.90;;;;;;5007051;28;20917;-71
2022/06/26 11:11:14;;;;;;;5.10;2.40;;;28.70;99.90;;;;;;5006243;28;20458;-72
2022/06/26 11:14:06;;;;;;;4.80;2.67;;;28.70;99.90;;;;;;5005287;28;20518;-73
2022/06/26 11:16:32;;;;;;;3.33;2.60;;;28.70;99.90;;;;;;5001564;28;20420;-72
2022/06/26 11:19:03;;;;;;;2.60;2.40;;;28.80;99.90;;;;;;4988996;28;20439;-71
2022/06/26 11:21:29;;;;;;;2.63;2.43;;;28.80;99.90;;;;;;5002945;28;20592;-72
2022/06/26 11:23:55;;;;;;;4.20;2.80;;;28.60;99.90;;;;;;5001560;28;20431;-72
2022/06/26 11:26:22;;;;;;;2.60;2.40;;;28.50;99.90;;;;;;5004656;28;21082;-73
2022/06/26 11:29:00;;;;;;;4.33;2.27;;;28.40;99.90;;;;;;4986604;28;20439;-70
2022/06/26 11:31:31;;;;;;;2.80;2.60;;;28.50;99.90;;;;;;5003602;28;20432;-71
2022/06/26 11:34:13;;;;;;;2.47;2.27;;;28.30;99.90;;;;;;5003743;28;20586;-73
2022/06/26 11:36:59;;;;;;;2.50;2.30;;;28.30;99.90;;;;;;5001423;28;20797;-71
2022/06/26 11:39:40;;;;;;;2.77;2.17;;;28.30;99.90;;;;;;5003641;28;20517;-71
2022/06/26 11:42:22;;;;;;;2.77;2.57;;;28.40;99.90;;;;;;4986952;28;20444;-71
2022/06/26 11:44:49;;;;;;;4.17;3.00;;;28.40;99.90;;;;;;4987570;28;20424;-72
2022/06/26 11:47:16;;;;;;;4.83;2.40;;;28.40;99.90;;;;;;5003852;28;20786;-71
2022/06/26 11:49:41;;;;;;;2.87;2.67;;;28.40;99.90;;;;;;5001448;28;20999;-72
2022/06/26 11:52:08;;;;;;;4.00;2.70;;;28.50;99.90;;;;;;5003760;28;20446;-72
2022/06/26 11:54:34;;;;;;;2.57;2.37;;;28.70;99.90;;;;;;5002386;28;20296;-71
2022/06/26 11:57:08;;;;;;;3.60;2.70;;;28.80;99.90;;;;;;5005895;28;21187;-72
2022/06/26 11:59:42;;;;;;;2.80;2.60;;;29.00;99.90;;;;;;5001549;28;20643;-73
2022/06/26 12:02:25;;;;;;;3.30;3.00;;;29.00;99.90;;;;;;4985806;28;20793;-72
2022/06/26 12:04:58;;;;;;;2.60;2.40;;;29.10;99.90;;;;;;5005336;28;20486;-71
2022/06/26 12:07:24;;;;;;;4.20;2.80;;;29.30;99.90;;;;;;5002981;28;20451;-71
2022/06/26 12:09:50;;;;;;;3.40;2.93;;;29.60;99.90;;;;;;5002123;28;20447;-71
2022/06/26 12:12:16;;;;;;;3.73;2.50;;;30.20;99.90;;;;;;5003860;28;20816;-72
2022/06/26 12:14:52;;;;;;;2.90;2.70;;;30.90;99.90;;;;;;5001784;28;20197;-71
2022/06/26 12:17:23;;;;;;;3.00;2.77;;;32.10;99.90;;;;;;5005854;28;20681;-72
2022/06/26 12:19:48;;;;;;;3.63;2.70;;;32.50;99.90;;;;;;5005679;28;20542;-71
2022/06/26 12:22:29;;;;;;;3.00;2.70;;;32.10;98.70;;;;;;5002683;28;20836;-72
2022/06/26 12:24:55;;;;;;;2.90;2.70;;;31.60;97.80;;;;;;5003089;28;20181;-72
2022/06/26 12:27:33;;;;;;;3.10;2.90;;;31.30;97.70;;;;;;5002907;28;20444;-73
2022/06/26 12:29:58;;;;;;;4.10;2.90;;;31.10;98.50;;;;;;5003014;28;21212;-71
2022/06/26 12:32:24;;;;;;;3.83;2.87;;;30.90;98.00;;;;;;5003596;28;20583;-72
2022/06/26 12:34:49;;;;;;;4.10;2.80;;;30.70;97.00;;;;;;5004711;28;20329;-71
2022/06/26 12:37:15;;;;;;;2.90;2.70;;;30.30;97.30;;;;;;5003859;28;20643;-72
2022/06/26 12:39:41;;;;;;;3.23;2.93;;;30.00;97.30;;;;;;5003599;28;20195;-71
2022/06/26 12:42:06;;;;;;;2.63;2.43;;;29.90;97.00;;;;;;5003059;28;20189;-72
2022/06/26 12:44:33;;;;;;;2.60;2.40;;;29.80;97.20;;;;;;5003064;28;20189;-70
2022/06/26 12:46:58;;;;;;;2.67;2.43;;;29.80;97.80;;;;;;5005055;28;20197;-72
2022/06/26 12:49:24;;;;;;;2.60;2.40;;;29.90;96.90;;;;;;5001406;28;20479;-72
2022/06/26 12:51:49;;;;;;;2.57;2.37;;;30.50;96.30;;;;;;5003786;28;20734;-70
2022/06/26 12:54:15;;;;;;;2.80;2.50;;;31.20;94.90;;;;;;5006641;28;20209;-72
2022/06/26 12:56:41;;;;;;;2.70;2.50;;;33.20;93.20;;;;;;5001904;28;20170;-72
2022/06/26 12:59:06;;;;;;;2.60;2.40;;;34.70;90.60;;;;;;5007495;28;20181;-71
2022/06/26 13:01:32;;;;;;;2.63;2.43;;;35.90;84.20;;;;;;5006542;28;20260;-70
2022/06/26 13:03:57;;;;;;;2.67;2.47;;;36.60;78.20;;;;;;5007290;28;20181;-70